sensor_id;sensor_type;location;lat;lon;timestamp;temperature;humidity
9984;DHT22;16737;50.932;6.780;2023-06-26T00:00:34;26.50;58.30
9984;DHT22;16737;50.932;6.780;2023-06-26T00:03:02;26.50;57.70
9984;DHT22;16737;50.932;6.780;2023-06-26T00:05:30;26.50;57.70
9984;DHT22;16737;50.932;6.780;2023-06-26T00:07:58;26.40;57.80
9984;DHT22;16737;50.932;6.780;2023-06-26T00:10:26;26.40;57.80
9984;DHT22;16737;50.932;6.780;2023-06-26T00:12:53;26.40;57.80
9984;DHT22;16737;50.932;6.780;2023-06-26T00:15:20;26.40;57.90
9984;DHT22;16737;50.932;6.780;2023-06-26T00:17:47;26.40;57.90
9984;DHT22;16737;50.932;6.780;2023-06-26T00:20:16;26.30;57.90
9984;DHT22;16737;50.932;6.780;2023-06-26T00:22:45;26.30;58.00
9984;DHT22;16737;50.932;6.780;2023-06-26T00:25:12;26.30;58.10
9984;DHT22;16737;50.932;6.780;2023-06-26T00:27:39;26.30;58.10
9984;DHT22;16737;50.932;6.780;2023-06-26T00:30:07;26.30;58.20
9984;DHT22;16737;50.932;6.780;2023-06-26T00:32:35;26.20;58.30
9984;DHT22;16737;50.932;6.780;2023-06-26T00:35:02;26.20;58.30
9984;DHT22;16737;50.932;6.780;2023-06-26T00:37:29;26.20;58.30
9984;DHT22;16737;50.932;6.780;2023-06-26T00:39:57;26.20;58.70
9984;DHT22;16737;50.932;6.780;2023-06-26T00:42:24;26.20;58.50
9984;DHT22;16737;50.932;6.780;2023-06-26T00:44:51;26.10;58.40
9984;DHT22;16737;50.932;6.780;2023-06-26T00:47:18;26.10;58.40
9984;DHT22;16737;50.932;6.780;2023-06-26T00:49:45;26.00;58.30
9984;DHT22;16737;50.932;6.780;2023-06-26T00:52:13;26.00;58.40
9984;DHT22;16737;50.932;6.780;2023-06-26T00:54:40;26.00;58.50
9984;DHT22;16737;50.932;6.780;2023-06-26T00:57:08;25.90;58.50
9984;DHT22;16737;50.932;6.780;2023-06-26T00:59:36;25.90;58.70
9984;DHT22;16737;50.932;6.780;2023-06-26T01:02:04;25.90;58.70
9984;DHT22;16737;50.932;6.780;2023-06-26T01:04:31;25.90;58.90
9984;DHT22;16737;50.932;6.780;2023-06-26T01:06:59;25.80;59.00
9984;DHT22;16737;50.932;6.780;2023-06-26T01:09:28;25.80;58.90
9984;DHT22;16737;50.932;6.780;2023-06-26T01:11:56;25.80;59.00
9984;DHT22;16737;50.932;6.780;2023-06-26T01:14:24;25.70;59.00
9984;DHT22;16737;50.932;6.780;2023-06-26T01:16:51;25.70;59.10
9984;DHT22;16737;50.932;6.780;2023-06-26T01:19:24;25.70;59.10
9984;DHT22;16737;50.932;6.780;2023-06-26T01:21:58;25.60;59.10
9984;DHT22;16737;50.932;6.780;2023-06-26T01:24:33;25.60;59.20
9984;DHT22;16737;50.932;6.780;2023-06-26T01:27:05;25.60;59.40
9984;DHT22;16737;50.932;6.780;2023-06-26T01:29:34;25.60;59.40
9984;DHT22;16737;50.932;6.780;2023-06-26T01:32:02;25.50;59.30
9984;DHT22;16737;50.932;6.780;2023-06-26T01:34:30;25.50;59.40
9984;DHT22;16737;50.932;6.780;2023-06-26T01:36:57;25.50;59.50
9984;DHT22;16737;50.932;6.780;2023-06-26T01:39:24;25.40;60.20
9984;DHT22;16737;50.932;6.780;2023-06-26T01:41:51;25.40;59.70
9984;DHT22;16737;50.932;6.780;2023-06-26T01:44:26;25.40;59.70
9984;DHT22;16737;50.932;6.780;2023-06-26T01:47:00;25.30;59.90
9984;DHT22;16737;50.932;6.780;2023-06-26T01:49:43;25.30;60.00
9984;DHT22;16737;50.932;6.780;2023-06-26T01:52:19;25.30;60.10
9984;DHT22;16737;50.932;6.780;2023-06-26T01:54:58;25.20;59.90
9984;DHT22;16737;50.932;6.780;2023-06-26T01:57:31;25.20;60.30
9984;DHT22;16737;50.932;6.780;2023-06-26T02:00:00;25.20;60.00
9984;DHT22;16737;50.932;6.780;2023-06-26T02:02:29;25.20;60.10
9984;DHT22;16737;50.932;6.780;2023-06-26T02:04:56;25.10;60.10
9984;DHT22;16737;50.932;6.780;2023-06-26T02:07:24;25.10;60.30
9984;DHT22;16737;50.932;6.780;2023-06-26T02:09:51;25.00;60.30
9984;DHT22;16737;50.932;6.780;2023-06-26T02:12:18;25.00;60.40
9984;DHT22;16737;50.932;6.780;2023-06-26T02:14:45;25.00;60.60
9984;DHT22;16737;50.932;6.780;2023-06-26T02:17:13;25.00;60.70
9984;DHT22;16737;50.932;6.780;2023-06-26T02:19:40;24.90;60.90
9984;DHT22;16737;50.932;6.780;2023-06-26T02:22:13;24.90;60.90
9984;DHT22;16737;50.932;6.780;2023-06-26T02:24:40;24.90;61.10
9984;DHT22;16737;50.932;6.780;2023-06-26T02:27:08;24.90;61.30
9984;DHT22;16737;50.932;6.780;2023-06-26T02:29:35;24.80;61.30
9984;DHT22;16737;50.932;6.780;2023-06-26T02:32:02;24.80;61.40
9984;DHT22;16737;50.932;6.780;2023-06-26T02:34:31;24.80;61.50
9984;DHT22;16737;50.932;6.780;2023-06-26T02:36:58;24.80;61.70
9984;DHT22;16737;50.932;6.780;2023-06-26T02:39:26;24.80;61.70
9984;DHT22;16737;50.932;6.780;2023-06-26T02:41:52;24.80;61.90
9984;DHT22;16737;50.932;6.780;2023-06-26T02:44:19;24.70;61.90
9984;DHT22;16737;50.932;6.780;2023-06-26T02:46:46;24.80;62.20
9984;DHT22;16737;50.932;6.780;2023-06-26T02:49:13;24.80;62.30
9984;DHT22;16737;50.932;6.780;2023-06-26T02:51:42;24.80;62.50
9984;DHT22;16737;50.932;6.780;2023-06-26T02:54:08;24.80;63.00
9984;DHT22;16737;50.932;6.780;2023-06-26T02:56:35;24.70;63.00
9984;DHT22;16737;50.932;6.780;2023-06-26T02:59:03;24.80;63.30
9984;DHT22;16737;50.932;6.780;2023-06-26T03:01:29;24.80;63.60
9984;DHT22;16737;50.932;6.780;2023-06-26T03:03:56;24.80;63.80
9984;DHT22;16737;50.932;6.780;2023-06-26T03:06:26;24.90;63.90
9984;DHT22;16737;50.932;6.780;2023-06-26T03:08:54;24.90;64.10
9984;DHT22;16737;50.932;6.780;2023-06-26T03:11:21;24.90;64.40
9984;DHT22;16737;50.932;6.780;2023-06-26T03:13:48;24.90;64.30
9984;DHT22;16737;50.932;6.780;2023-06-26T03:16:15;24.90;64.60
9984;DHT22;16737;50.932;6.780;2023-06-26T03:18:42;24.90;64.80
9984;DHT22;16737;50.932;6.780;2023-06-26T03:21:09;24.90;64.90
9984;DHT22;16737;50.932;6.780;2023-06-26T03:23:36;24.90;65.20
9984;DHT22;16737;50.932;6.780;2023-06-26T03:26:04;24.90;65.30
9984;DHT22;16737;50.932;6.780;2023-06-26T03:28:31;24.80;65.60
9984;DHT22;16737;50.932;6.780;2023-06-26T03:30:58;24.80;65.50
9984;DHT22;16737;50.932;6.780;2023-06-26T03:33:25;24.80;65.90
9984;DHT22;16737;50.932;6.780;2023-06-26T03:35:52;24.80;66.20
9984;DHT22;16737;50.932;6.780;2023-06-26T03:38:19;24.70;66.20
9984;DHT22;16737;50.932;6.780;2023-06-26T03:40:49;24.70;66.40
9984;DHT22;16737;50.932;6.780;2023-06-26T03:43:17;24.70;66.70
9984;DHT22;16737;50.932;6.780;2023-06-26T03:45:44;24.60;67.10
9984;DHT22;16737;50.932;6.780;2023-06-26T03:48:12;24.60;67.40
9984;DHT22;16737;50.932;6.780;2023-06-26T03:50:39;24.60;67.60
9984;DHT22;16737;50.932;6.780;2023-06-26T03:53:06;24.60;67.80
9984;DHT22;16737;50.932;6.780;2023-06-26T03:55:33;24.60;68.10
9984;DHT22;16737;50.932;6.780;2023-06-26T03:58:00;24.50;68.40
9984;DHT22;16737;50.932;6.780;2023-06-26T04:00:29;24.50;68.80
9984;DHT22;16737;50.932;6.780;2023-06-26T04:02:55;24.50;69.20
9984;DHT22;16737;50.932;6.780;2023-06-26T04:05:23;24.50;69.20
9984;DHT22;16737;50.932;6.780;2023-06-26T04:07:50;24.50;69.50
9984;DHT22;16737;50.932;6.780;2023-06-26T04:10:18;24.50;69.80
9984;DHT22;16737;50.932;6.780;2023-06-26T04:12:46;24.50;69.90
9984;DHT22;16737;50.932;6.780;2023-06-26T04:15:13;24.50;70.10
9984;DHT22;16737;50.932;6.780;2023-06-26T04:17:42;24.50;70.20
9984;DHT22;16737;50.932;6.780;2023-06-26T04:20:12;24.50;70.50
9984;DHT22;16737;50.932;6.780;2023-06-26T04:22:40;24.50;70.40
9984;DHT22;16737;50.932;6.780;2023-06-26T04:25:08;24.50;70.30
9984;DHT22;16737;50.932;6.780;2023-06-26T04:27:37;24.50;70.40
9984;DHT22;16737;50.932;6.780;2023-06-26T04:30:05;24.50;70.60
9984;DHT22;16737;50.932;6.780;2023-06-26T04:32:33;24.40;70.50
9984;DHT22;16737;50.932;6.780;2023-06-26T04:35:01;24.40;70.60
9984;DHT22;16737;50.932;6.780;2023-06-26T04:37:29;24.40;70.90
9984;DHT22;16737;50.932;6.780;2023-06-26T04:39:55;24.40;70.80
9984;DHT22;16737;50.932;6.780;2023-06-26T04:42:22;24.40;70.90
9984;DHT22;16737;50.932;6.780;2023-06-26T04:44:49;24.40;70.90
9984;DHT22;16737;50.932;6.780;2023-06-26T04:47:16;24.40;70.90
9984;DHT22;16737;50.932;6.780;2023-06-26T04:49:43;24.30;71.00
9984;DHT22;16737;50.932;6.780;2023-06-26T04:52:12;24.30;71.00
9984;DHT22;16737;50.932;6.780;2023-06-26T04:54:39;24.30;71.30
9984;DHT22;16737;50.932;6.780;2023-06-26T04:57:06;24.30;71.10
9984;DHT22;16737;50.932;6.780;2023-06-26T04:59:35;24.30;71.10
9984;DHT22;16737;50.932;6.780;2023-06-26T05:02:02;24.30;71.10
9984;DHT22;16737;50.932;6.780;2023-06-26T05:04:30;24.30;71.30
9984;DHT22;16737;50.932;6.780;2023-06-26T05:06:57;24.30;71.40
9984;DHT22;16737;50.932;6.780;2023-06-26T05:09:25;24.30;71.60
9984;DHT22;16737;50.932;6.780;2023-06-26T05:11:52;24.30;71.90
9984;DHT22;16737;50.932;6.780;2023-06-26T05:14:19;24.30;71.70
9984;DHT22;16737;50.932;6.780;2023-06-26T05:16:46;24.30;71.90
9984;DHT22;16737;50.932;6.780;2023-06-26T05:19:13;24.20;71.80
9984;DHT22;16737;50.932;6.780;2023-06-26T05:21:41;24.20;71.90
9984;DHT22;16737;50.932;6.780;2023-06-26T05:24:09;24.20;72.00
9984;DHT22;16737;50.932;6.780;2023-06-26T05:26:41;24.20;72.20
9984;DHT22;16737;50.932;6.780;2023-06-26T05:29:09;24.20;72.50
9984;DHT22;16737;50.932;6.780;2023-06-26T05:31:41;24.10;72.40
9984;DHT22;16737;50.932;6.780;2023-06-26T05:34:12;24.10;73.10
9984;DHT22;16737;50.932;6.780;2023-06-26T05:36:41;24.10;73.00
9984;DHT22;16737;50.932;6.780;2023-06-26T05:39:11;24.10;72.90
9984;DHT22;16737;50.932;6.780;2023-06-26T05:41:40;24.10;72.90
9984;DHT22;16737;50.932;6.780;2023-06-26T05:44:08;24.10;73.00
9984;DHT22;16737;50.932;6.780;2023-06-26T05:46:35;24.10;73.10
9984;DHT22;16737;50.932;6.780;2023-06-26T05:49:02;24.10;73.10
9984;DHT22;16737;50.932;6.780;2023-06-26T05:51:29;24.10;73.30
9984;DHT22;16737;50.932;6.780;2023-06-26T05:53:57;24.10;73.40
9984;DHT22;16737;50.932;6.780;2023-06-26T05:56:25;24.10;73.60
9984;DHT22;16737;50.932;6.780;2023-06-26T05:58:54;24.00;73.70
9984;DHT22;16737;50.932;6.780;2023-06-26T06:01:22;24.00;74.40
9984;DHT22;16737;50.932;6.780;2023-06-26T06:03:50;24.00;74.50
9984;DHT22;16737;50.932;6.780;2023-06-26T06:06:17;24.00;74.40
9984;DHT22;16737;50.932;6.780;2023-06-26T06:08:44;24.00;75.30
9984;DHT22;16737;50.932;6.780;2023-06-26T06:11:11;24.10;74.80
9984;DHT22;16737;50.932;6.780;2023-06-26T06:13:38;24.10;75.10
9984;DHT22;16737;50.932;6.780;2023-06-26T06:16:06;24.10;75.00
9984;DHT22;16737;50.932;6.780;2023-06-26T06:18:33;24.10;75.10
9984;DHT22;16737;50.932;6.780;2023-06-26T06:21:00;24.10;75.00
9984;DHT22;16737;50.932;6.780;2023-06-26T06:23:27;24.10;75.00
9984;DHT22;16737;50.932;6.780;2023-06-26T06:25:54;24.10;75.10
9984;DHT22;16737;50.932;6.780;2023-06-26T06:28:21;24.10;75.30
9984;DHT22;16737;50.932;6.780;2023-06-26T06:30:48;24.00;75.30
9984;DHT22;16737;50.932;6.780;2023-06-26T06:33:16;24.10;75.60
9984;DHT22;16737;50.932;6.780;2023-06-26T06:35:43;24.00;75.70
9984;DHT22;16737;50.932;6.780;2023-06-26T06:38:11;24.00;75.60
9984;DHT22;16737;50.932;6.780;2023-06-26T06:40:38;24.00;75.70
9984;DHT22;16737;50.932;6.780;2023-06-26T06:43:04;24.00;75.70
9984;DHT22;16737;50.932;6.780;2023-06-26T06:45:31;23.90;75.80
9984;DHT22;16737;50.932;6.780;2023-06-26T06:47:58;23.90;75.90
9984;DHT22;16737;50.932;6.780;2023-06-26T06:50:27;23.90;76.20
9984;DHT22;16737;50.932;6.780;2023-06-26T06:52:54;23.80;75.90
9984;DHT22;16737;50.932;6.780;2023-06-26T06:55:21;23.80;76.60
9984;DHT22;16737;50.932;6.780;2023-06-26T06:57:48;23.80;77.10
9984;DHT22;16737;50.932;6.780;2023-06-26T07:00:16;23.80;77.20
9984;DHT22;16737;50.932;6.780;2023-06-26T07:02:44;23.80;77.30
9984;DHT22;16737;50.932;6.780;2023-06-26T07:05:12;23.80;77.40
9984;DHT22;16737;50.932;6.780;2023-06-26T07:07:40;23.80;77.60
9984;DHT22;16737;50.932;6.780;2023-06-26T07:10:09;23.90;78.10
9984;DHT22;16737;50.932;6.780;2023-06-26T07:12:38;23.90;78.10
9984;DHT22;16737;50.932;6.780;2023-06-26T07:15:07;23.90;78.10
9984;DHT22;16737;50.932;6.780;2023-06-26T07:17:35;23.90;78.20
9984;DHT22;16737;50.932;6.780;2023-06-26T07:20:03;23.90;78.30
9984;DHT22;16737;50.932;6.780;2023-06-26T07:22:34;23.90;78.40
9984;DHT22;16737;50.932;6.780;2023-06-26T07:25:03;23.90;78.60
9984;DHT22;16737;50.932;6.780;2023-06-26T07:27:34;23.90;79.00
9984;DHT22;16737;50.932;6.780;2023-06-26T07:30:01;23.90;79.50
9984;DHT22;16737;50.932;6.780;2023-06-26T07:32:29;23.90;78.80
9984;DHT22;16737;50.932;6.780;2023-06-26T07:34:56;23.90;78.90
9984;DHT22;16737;50.932;6.780;2023-06-26T07:37:24;23.90;78.90
9984;DHT22;16737;50.932;6.780;2023-06-26T07:39:51;23.90;79.10
9984;DHT22;16737;50.932;6.780;2023-06-26T07:42:19;23.90;79.20
9984;DHT22;16737;50.932;6.780;2023-06-26T07:44:46;24.00;79.60
9984;DHT22;16737;50.932;6.780;2023-06-26T07:47:13;24.00;79.60
9984;DHT22;16737;50.932;6.780;2023-06-26T07:49:40;24.00;79.60
9984;DHT22;16737;50.932;6.780;2023-06-26T07:52:07;24.00;79.40
9984;DHT22;16737;50.932;6.780;2023-06-26T07:54:35;24.10;79.50
9984;DHT22;16737;50.932;6.780;2023-06-26T07:57:04;24.10;79.70
9984;DHT22;16737;50.932;6.780;2023-06-26T07:59:35;24.10;80.10
9984;DHT22;16737;50.932;6.780;2023-06-26T08:02:02;24.20;80.10
9984;DHT22;16737;50.932;6.780;2023-06-26T08:04:30;24.20;80.00
9984;DHT22;16737;50.932;6.780;2023-06-26T08:06:58;24.30;80.20
9984;DHT22;16737;50.932;6.780;2023-06-26T08:09:27;24.30;80.20
9984;DHT22;16737;50.932;6.780;2023-06-26T08:11:56;24.40;80.30
9984;DHT22;16737;50.932;6.780;2023-06-26T08:14:23;24.50;80.40
9984;DHT22;16737;50.932;6.780;2023-06-26T08:16:52;24.50;80.30
9984;DHT22;16737;50.932;6.780;2023-06-26T08:19:19;24.60;80.40
9984;DHT22;16737;50.932;6.780;2023-06-26T08:21:46;24.60;80.10
9984;DHT22;16737;50.932;6.780;2023-06-26T08:24:14;24.60;80.70
9984;DHT22;16737;50.932;6.780;2023-06-26T08:26:44;24.70;80.10
9984;DHT22;16737;50.932;6.780;2023-06-26T08:29:12;24.70;80.10
9984;DHT22;16737;50.932;6.780;2023-06-26T08:31:40;24.70;80.20
9984;DHT22;16737;50.932;6.780;2023-06-26T08:34:09;24.70;79.90
9984;DHT22;16737;50.932;6.780;2023-06-26T08:36:36;24.80;79.90
9984;DHT22;16737;50.932;6.780;2023-06-26T08:39:04;24.80;79.90
9984;DHT22;16737;50.932;6.780;2023-06-26T08:41:31;24.80;79.90
9984;DHT22;16737;50.932;6.780;2023-06-26T08:43:58;24.80;79.60
9984;DHT22;16737;50.932;6.780;2023-06-26T08:46:26;24.90;79.60
9984;DHT22;16737;50.932;6.780;2023-06-26T08:48:56;24.90;79.70
9984;DHT22;16737;50.932;6.780;2023-06-26T08:51:30;24.90;79.80
9984;DHT22;16737;50.932;6.780;2023-06-26T08:54:06;25.00;79.10
9984;DHT22;16737;50.932;6.780;2023-06-26T08:56:41;24.90;80.90
9984;DHT22;16737;50.932;6.780;2023-06-26T08:59:12;24.90;80.10
9984;DHT22;16737;50.932;6.780;2023-06-26T09:01:40;25.00;79.80
9984;DHT22;16737;50.932;6.780;2023-06-26T09:04:08;25.00;79.80
9984;DHT22;16737;50.932;6.780;2023-06-26T09:06:37;25.00;79.80
9984;DHT22;16737;50.932;6.780;2023-06-26T09:09:05;25.00;79.90
9984;DHT22;16737;50.932;6.780;2023-06-26T09:11:33;25.00;79.90
9984;DHT22;16737;50.932;6.780;2023-06-26T09:14:00;25.10;79.80
9984;DHT22;16737;50.932;6.780;2023-06-26T09:16:30;25.10;80.00
9984;DHT22;16737;50.932;6.780;2023-06-26T09:18:58;25.20;79.90
9984;DHT22;16737;50.932;6.780;2023-06-26T09:21:25;25.20;79.80
9984;DHT22;16737;50.932;6.780;2023-06-26T09:23:53;25.20;79.80
9984;DHT22;16737;50.932;6.780;2023-06-26T09:26:21;25.30;79.70
9984;DHT22;16737;50.932;6.780;2023-06-26T09:28:49;25.40;79.40
9984;DHT22;16737;50.932;6.780;2023-06-26T09:31:18;25.40;79.20
9984;DHT22;16737;50.932;6.780;2023-06-26T09:33:46;25.40;79.10
9984;DHT22;16737;50.932;6.780;2023-06-26T09:36:19;25.50;79.20
9984;DHT22;16737;50.932;6.780;2023-06-26T09:38:47;25.50;78.70
9984;DHT22;16737;50.932;6.780;2023-06-26T09:41:17;25.50;78.80
9984;DHT22;16737;50.932;6.780;2023-06-26T09:43:47;25.50;78.70
9984;DHT22;16737;50.932;6.780;2023-06-26T09:46:16;25.50;78.30
9984;DHT22;16737;50.932;6.780;2023-06-26T09:48:43;25.50;78.20
9984;DHT22;16737;50.932;6.780;2023-06-26T09:51:11;25.60;78.20
9984;DHT22;16737;50.932;6.780;2023-06-26T09:53:38;25.60;78.20
9984;DHT22;16737;50.932;6.780;2023-06-26T09:56:06;25.60;78.30
9984;DHT22;16737;50.932;6.780;2023-06-26T09:58:35;25.70;78.90
9984;DHT22;16737;50.932;6.780;2023-06-26T10:01:04;25.80;78.90
9984;DHT22;16737;50.932;6.780;2023-06-26T10:03:32;25.80;78.50
9984;DHT22;16737;50.932;6.780;2023-06-26T10:06:00;25.80;78.00
9984;DHT22;16737;50.932;6.780;2023-06-26T10:08:29;25.90;77.60
9984;DHT22;16737;50.932;6.780;2023-06-26T10:10:57;25.90;77.40
9984;DHT22;16737;50.932;6.780;2023-06-26T10:13:27;25.90;77.10
9984;DHT22;16737;50.932;6.780;2023-06-26T10:16:02;25.90;77.10
9984;DHT22;16737;50.932;6.780;2023-06-26T10:18:36;25.90;76.70
9984;DHT22;16737;50.932;6.780;2023-06-26T10:21:06;25.90;76.60
9984;DHT22;16737;50.932;6.780;2023-06-26T10:23:36;25.90;76.60
9984;DHT22;16737;50.932;6.780;2023-06-26T10:26:08;25.90;76.80
9984;DHT22;16737;50.932;6.780;2023-06-26T10:28:37;26.00;77.00
9984;DHT22;16737;50.932;6.780;2023-06-26T10:31:08;26.00;76.40
9984;DHT22;16737;50.932;6.780;2023-06-26T10:33:36;26.10;76.30
9984;DHT22;16737;50.932;6.780;2023-06-26T10:36:17;26.10;76.10
9984;DHT22;16737;50.932;6.780;2023-06-26T10:38:51;26.20;75.60
9984;DHT22;16737;50.932;6.780;2023-06-26T10:41:22;26.20;76.50
9984;DHT22;16737;50.932;6.780;2023-06-26T10:43:51;26.30;76.30
9984;DHT22;16737;50.932;6.780;2023-06-26T10:46:48;26.40;76.10
9984;DHT22;16737;50.932;6.780;2023-06-26T10:49:18;26.50;75.30
9984;DHT22;16737;50.932;6.780;2023-06-26T10:51:46;26.50;75.20
9984;DHT22;16737;50.932;6.780;2023-06-26T10:54:16;26.60;74.50
9984;DHT22;16737;50.932;6.780;2023-06-26T10:56:45;26.70;73.70
9984;DHT22;16737;50.932;6.780;2023-06-26T10:59:15;26.70;73.30
9984;DHT22;16737;50.932;6.780;2023-06-26T11:01:46;26.70;73.10
9984;DHT22;16737;50.932;6.780;2023-06-26T11:04:36;26.80;72.90
9984;DHT22;16737;50.932;6.780;2023-06-26T11:07:22;26.80;72.10
9984;DHT22;16737;50.932;6.780;2023-06-26T11:09:54;26.80;72.70
9984;DHT22;16737;50.932;6.780;2023-06-26T11:12:39;26.90;72.70
9984;DHT22;16737;50.932;6.780;2023-06-26T11:15:09;26.90;72.50
9984;DHT22;16737;50.932;6.780;2023-06-26T11:17:38;26.90;73.00
9984;DHT22;16737;50.932;6.780;2023-06-26T11:20:08;26.90;71.80
9984;DHT22;16737;50.932;6.780;2023-06-26T11:22:37;26.90;70.90
9984;DHT22;16737;50.932;6.780;2023-06-26T11:25:06;26.90;71.00
9984;DHT22;16737;50.932;6.780;2023-06-26T11:27:38;26.90;70.50
9984;DHT22;16737;50.932;6.780;2023-06-26T11:30:07;26.90;69.70
9984;DHT22;16737;50.932;6.780;2023-06-26T11:32:37;26.90;70.20
9984;DHT22;16737;50.932;6.780;2023-06-26T11:35:06;26.90;69.80
9984;DHT22;16737;50.932;6.780;2023-06-26T11:37:35;26.90;68.90
9984;DHT22;16737;50.932;6.780;2023-06-26T11:40:16;26.90;68.50
9984;DHT22;16737;50.932;6.780;2023-06-26T11:42:44;26.90;67.50
9984;DHT22;16737;50.932;6.780;2023-06-26T11:45:12;26.90;68.50
9984;DHT22;16737;50.932;6.780;2023-06-26T11:47:40;26.90;68.80
9984;DHT22;16737;50.932;6.780;2023-06-26T11:50:15;26.80;68.60
9984;DHT22;16737;50.932;6.780;2023-06-26T11:52:42;26.80;66.40
9984;DHT22;16737;50.932;6.780;2023-06-26T11:55:10;26.80;67.10
9984;DHT22;16737;50.932;6.780;2023-06-26T11:57:38;26.80;66.50
9984;DHT22;16737;50.932;6.780;2023-06-26T12:00:12;26.80;66.40
9984;DHT22;16737;50.932;6.780;2023-06-26T12:02:41;26.70;65.70
9984;DHT22;16737;50.932;6.780;2023-06-26T12:05:09;26.70;66.30
9984;DHT22;16737;50.932;6.780;2023-06-26T12:07:37;26.70;66.50
9984;DHT22;16737;50.932;6.780;2023-06-26T12:10:05;26.80;67.00
9984;DHT22;16737;50.932;6.780;2023-06-26T12:12:33;26.80;66.60
9984;DHT22;16737;50.932;6.780;2023-06-26T12:15:01;26.90;66.10
9984;DHT22;16737;50.932;6.780;2023-06-26T12:17:28;26.90;66.20
9984;DHT22;16737;50.932;6.780;2023-06-26T12:19:57;27.00;66.30
9984;DHT22;16737;50.932;6.780;2023-06-26T12:22:33;27.00;66.00
9984;DHT22;16737;50.932;6.780;2023-06-26T12:25:01;27.10;65.00
9984;DHT22;16737;50.932;6.780;2023-06-26T12:27:29;27.10;65.50
9984;DHT22;16737;50.932;6.780;2023-06-26T12:29:57;27.20;65.00
9984;DHT22;16737;50.932;6.780;2023-06-26T12:32:25;27.10;64.50
9984;DHT22;16737;50.932;6.780;2023-06-26T12:34:52;27.10;64.40
9984;DHT22;16737;50.932;6.780;2023-06-26T12:37:20;27.10;64.10
9984;DHT22;16737;50.932;6.780;2023-06-26T12:39:50;27.10;63.90
9984;DHT22;16737;50.932;6.780;2023-06-26T12:42:19;27.10;64.00
9984;DHT22;16737;50.932;6.780;2023-06-26T12:44:47;27.10;63.50
9984;DHT22;16737;50.932;6.780;2023-06-26T12:47:15;27.00;63.00
9984;DHT22;16737;50.932;6.780;2023-06-26T12:49:44;27.00;62.70
9984;DHT22;16737;50.932;6.780;2023-06-26T12:52:16;27.00;62.20
9984;DHT22;16737;50.932;6.780;2023-06-26T12:54:46;26.90;62.00
9984;DHT22;16737;50.932;6.780;2023-06-26T12:57:19;26.90;62.00
9984;DHT22;16737;50.932;6.780;2023-06-26T12:59:46;26.90;62.00
9984;DHT22;16737;50.932;6.780;2023-06-26T13:02:13;26.90;62.30
9984;DHT22;16737;50.932;6.780;2023-06-26T13:04:41;26.90;61.90
9984;DHT22;16737;50.932;6.780;2023-06-26T13:07:10;26.90;61.40
9984;DHT22;16737;50.932;6.780;2023-06-26T13:09:37;26.90;61.20
9984;DHT22;16737;50.932;6.780;2023-06-26T13:12:08;26.90;60.80
9984;DHT22;16737;50.932;6.780;2023-06-26T13:14:35;26.90;60.90
9984;DHT22;16737;50.932;6.780;2023-06-26T13:17:04;26.90;61.00
9984;DHT22;16737;50.932;6.780;2023-06-26T13:19:31;27.00;61.00
9984;DHT22;16737;50.932;6.780;2023-06-26T13:21:58;27.00;61.20
9984;DHT22;16737;50.932;6.780;2023-06-26T13:24:25;27.00;60.70
9984;DHT22;16737;50.932;6.780;2023-06-26T13:26:52;27.00;60.50
9984;DHT22;16737;50.932;6.780;2023-06-26T13:29:20;27.10;60.50
9984;DHT22;16737;50.932;6.780;2023-06-26T13:31:48;27.10;59.90
9984;DHT22;16737;50.932;6.780;2023-06-26T13:34:22;27.00;59.80
9984;DHT22;16737;50.932;6.780;2023-06-26T13:36:53;27.00;59.10
9984;DHT22;16737;50.932;6.780;2023-06-26T13:39:20;27.00;58.10
9984;DHT22;16737;50.932;6.780;2023-06-26T13:41:47;27.00;59.10
9984;DHT22;16737;50.932;6.780;2023-06-26T13:44:14;27.00;59.40
9984;DHT22;16737;50.932;6.780;2023-06-26T13:46:42;27.00;58.60
9984;DHT22;16737;50.932;6.780;2023-06-26T13:49:09;27.00;58.50
9984;DHT22;16737;50.932;6.780;2023-06-26T13:51:36;27.10;58.80
9984;DHT22;16737;50.932;6.780;2023-06-26T13:54:06;27.10;58.70
9984;DHT22;16737;50.932;6.780;2023-06-26T13:56:34;27.10;58.30
9984;DHT22;16737;50.932;6.780;2023-06-26T13:59:01;27.20;58.20
9984;DHT22;16737;50.932;6.780;2023-06-26T14:01:28;27.20;58.20
9984;DHT22;16737;50.932;6.780;2023-06-26T14:03:57;27.30;58.20
9984;DHT22;16737;50.932;6.780;2023-06-26T14:06:25;27.30;58.00
9984;DHT22;16737;50.932;6.780;2023-06-26T14:08:52;27.40;58.10
9984;DHT22;16737;50.932;6.780;2023-06-26T14:11:19;27.50;57.70
9984;DHT22;16737;50.932;6.780;2023-06-26T14:13:48;27.60;57.60
9984;DHT22;16737;50.932;6.780;2023-06-26T14:16:15;27.60;57.50
9984;DHT22;16737;50.932;6.780;2023-06-26T14:18:44;27.70;57.10
9984;DHT22;16737;50.932;6.780;2023-06-26T14:21:12;27.70;57.00
9984;DHT22;16737;50.932;6.780;2023-06-26T14:23:40;27.60;56.70
9984;DHT22;16737;50.932;6.780;2023-06-26T14:26:07;27.60;56.80
9984;DHT22;16737;50.932;6.780;2023-06-26T14:28:34;27.50;56.80
9984;DHT22;16737;50.932;6.780;2023-06-26T14:31:01;27.50;57.00
9984;DHT22;16737;50.932;6.780;2023-06-26T14:33:28;27.50;56.90
9984;DHT22;16737;50.932;6.780;2023-06-26T14:35:55;27.40;56.70
9984;DHT22;16737;50.932;6.780;2023-06-26T14:38:23;27.40;56.60
9984;DHT22;16737;50.932;6.780;2023-06-26T14:40:50;27.40;56.70
9984;DHT22;16737;50.932;6.780;2023-06-26T14:43:17;27.40;56.70
9984;DHT22;16737;50.932;6.780;2023-06-26T14:45:44;27.40;56.80
9984;DHT22;16737;50.932;6.780;2023-06-26T14:48:11;27.40;56.80
9984;DHT22;16737;50.932;6.780;2023-06-26T14:50:39;27.50;56.80
9984;DHT22;16737;50.932;6.780;2023-06-26T14:53:07;27.50;56.90
9984;DHT22;16737;50.932;6.780;2023-06-26T14:55:35;27.50;56.40
9984;DHT22;16737;50.932;6.780;2023-06-26T14:58:02;27.50;56.20
9984;DHT22;16737;50.932;6.780;2023-06-26T15:00:29;27.50;56.20
9984;DHT22;16737;50.932;6.780;2023-06-26T15:02:56;27.50;56.00
9984;DHT22;16737;50.932;6.780;2023-06-26T15:05:24;27.50;55.80
9984;DHT22;16737;50.932;6.780;2023-06-26T15:07:51;27.40;55.50
9984;DHT22;16737;50.932;6.780;2023-06-26T15:10:18;27.40;55.50
9984;DHT22;16737;50.932;6.780;2023-06-26T15:12:48;27.40;55.40
9984;DHT22;16737;50.932;6.780;2023-06-26T15:15:15;27.40;55.30
9984;DHT22;16737;50.932;6.780;2023-06-26T15:17:43;27.40;55.20
9984;DHT22;16737;50.932;6.780;2023-06-26T15:20:10;27.30;55.00
9984;DHT22;16737;50.932;6.780;2023-06-26T15:22:37;27.40;55.00
9984;DHT22;16737;50.932;6.780;2023-06-26T15:25:07;27.40;54.90
9984;DHT22;16737;50.932;6.780;2023-06-26T15:27:34;27.40;54.90
9984;DHT22;16737;50.932;6.780;2023-06-26T15:30:03;27.40;54.50
9984;DHT22;16737;50.932;6.780;2023-06-26T15:32:31;27.40;54.40
9984;DHT22;16737;50.932;6.780;2023-06-26T15:34:58;27.30;54.30
9984;DHT22;16737;50.932;6.780;2023-06-26T15:37:26;27.30;54.30
9984;DHT22;16737;50.932;6.780;2023-06-26T15:39:53;27.30;54.50
9984;DHT22;16737;50.932;6.780;2023-06-26T15:42:20;27.30;54.30
9984;DHT22;16737;50.932;6.780;2023-06-26T15:44:47;27.30;54.30
9984;DHT22;16737;50.932;6.780;2023-06-26T15:47:16;27.20;54.00
9984;DHT22;16737;50.932;6.780;2023-06-26T15:49:43;27.20;53.80
9984;DHT22;16737;50.932;6.780;2023-06-26T15:52:10;27.20;53.80